Time;durP1;ratioP1;P1;durP2;ratioP2;P2;SDS_P1;SDS_P2;PMS_P1;PMS_P2;Temp;Humidity;BMP_temperature;BMP_pressure;BME280_temperature;BME280_humidity;BME280_pressure;Samples;Min_cycle;Max_cycle;Signal;HPM_P1;HPM_P2
2021/12/24 00:00:51;;;;;;;3.83;2.67;;;;;;;;;;5054793;28;20589;-61
2021/12/24 00:03:17;;;;;;;2.80;1.80;;;;;;;;;;5055105;28;20883;-61
2021/12/24 00:05:43;;;;;;;4.93;1.80;;;;;;;;;;5051983;28;20430;-62
2021/12/24 00:08:09;;;;;;;5.33;2.00;;;;;;;;;;5053882;28;20403;-60
2021/12/24 00:10:36;;;;;;;2.87;2.10;;;;;;;;;;5054542;28;20405;-61
2021/12/24 00:13:11;;;;;;;2.87;1.83;;;;;;;;;;5054701;28;20596;-61
2021/12/24 00:18:36;;;;;;;2.63;1.97;;;;;;;;;;5054497;28;20863;-60
2021/12/24 00:37:32;;;;;;;2.73;2.03;;;;;;;;;;5056545;28;20374;-57
2021/12/24 00:40:11;;;;;;;2.20;1.60;;;;;;;;;;5057062;28;20406;-57
2021/12/24 00:42:37;;;;;;;2.40;1.73;;;;;;;;;;5055576;28;20882;-56
2021/12/24 00:45:04;;;;;;;3.50;1.67;;;;;;;;;;5056727;28;20429;-61
2021/12/24 00:47:30;;;;;;;3.13;1.93;;;;;;;;;;5056222;28;20529;-59
2021/12/24 00:49:57;;;;;;;3.50;1.90;;;;;;;;;;5057004;28;20812;-57
2021/12/24 00:55:09;;;;;;;2.50;1.70;;;;;;;;;;5059481;28;20917;-61
2021/12/24 00:57:37;;;;;;;4.13;1.93;;;;;;;;;;5059564;28;20397;-58
2021/12/24 01:00:23;;;;;;;4.43;2.10;;;;;;;;;;5058616;28;20415;-61
2021/12/24 01:02:50;;;;;;;2.57;1.70;;;;;;;;;;5058065;28;20402;-58
2021/12/24 01:05:16;;;;;;;4.07;2.33;;;;;;;;;;5058538;28;20481;-56
2021/12/24 01:07:46;;;;;;;2.30;1.80;;;;;;;;;;5058296;28;20449;-58
2021/12/24 01:10:14;;;;;;;1.93;1.73;;;;;;;;;;5058413;28;20406;-60
2021/12/24 01:12:40;;;;;;;2.10;1.63;;;;;;;;;;5058042;28;20402;-61
2021/12/24 01:15:06;;;;;;;3.57;2.30;;;;;;;;;;5058283;28;20811;-59
2021/12/24 01:20:10;;;;;;;2.90;2.20;;;;;;;;;;5057858;28;20414;-60
2021/12/24 01:25:47;;;;;;;3.93;2.30;;;;;;;;;;5034671;28;20836;-61
2021/12/24 01:39:39;;;;;;;3.17;2.20;;;;;;;;;;5057076;28;20432;-61
2021/12/24 01:44:50;;;;;;;4.07;1.83;;;;;;;;;;5056190;28;20556;-60
2021/12/24 01:47:16;;;;;;;4.13;2.17;;;;;;;;;;5055183;28;20872;-61
2021/12/24 01:49:43;;;;;;;3.33;2.07;;;;;;;;;;5056638;28;20428;-61
2021/12/24 01:52:09;;;;;;;2.40;1.70;;;;;;;;;;5056100;28;20401;-62
2021/12/24 01:54:35;;;;;;;2.30;1.67;;;;;;;;;;5056484;28;20417;-61
2021/12/24 01:57:01;;;;;;;4.33;2.03;;;;;;;;;;5056631;28;20430;-60
2021/12/24 01:59:27;;;;;;;3.33;1.97;;;;;;;;;;5056240;28;20827;-61
2021/12/24 02:01:54;;;;;;;2.37;1.53;;;;;;;;;;5054689;28;20402;-61
2021/12/24 02:04:20;;;;;;;3.30;1.67;;;;;;;;;;5055635;28;20414;-60
2021/12/24 02:06:46;;;;;;;3.53;1.73;;;;;;;;;;5055704;28;20475;-59
2021/12/24 02:09:13;;;;;;;2.70;1.87;;;;;;;;;;5055770;28;20768;-61
2021/12/24 02:11:39;;;;;;;3.10;1.70;;;;;;;;;;5055274;28;20393;-61
2021/12/24 02:14:07;;;;;;;2.60;1.53;;;;;;;;;;5055306;28;20422;-59
2021/12/24 02:29:57;;;;;;;4.37;2.17;;;;;;;;;;5056114;28;20381;-61
2021/12/24 02:32:23;;;;;;;3.47;1.57;;;;;;;;;;5055630;28;20397;-62
2021/12/24 02:34:49;;;;;;;2.90;2.00;;;;;;;;;;5054298;28;20429;-62
2021/12/24 02:37:16;;;;;;;3.00;1.80;;;;;;;;;;5054960;28;20409;-62
2021/12/24 02:39:42;;;;;;;3.37;2.23;;;;;;;;;;5055077;28;20402;-61
2021/12/24 02:42:13;;;;;;;3.60;2.17;;;;;;;;;;5055521;28;20413;-61
2021/12/24 02:44:39;;;;;;;2.80;1.50;;;;;;;;;;5055630;28;20474;-61
2021/12/24 02:47:24;;;;;;;2.60;1.80;;;;;;;;;;5054994;28;20445;-61
2021/12/24 02:55:04;;;;;;;3.90;1.80;;;;;;;;;;5044387;28;20452;-61
2021/12/24 02:57:31;;;;;;;2.83;2.10;;;;;;;;;;5035325;28;20439;-61
2021/12/24 03:00:13;;;;;;;4.50;2.07;;;;;;;;;;5035336;28;20409;-61
2021/12/24 03:02:39;;;;;;;2.87;1.67;;;;;;;;;;5035478;28;20387;-61
2021/12/24 03:05:06;;;;;;;2.93;1.47;;;;;;;;;;5034983;28;20505;-61
2021/12/24 03:07:32;;;;;;;2.73;2.03;;;;;;;;;;5034564;28;20447;-62
2021/12/24 03:10:00;;;;;;;3.30;1.53;;;;;;;;;;5035067;28;20399;-59
2021/12/24 03:12:26;;;;;;;5.47;1.77;;;;;;;;;;5034318;28;20490;-60
2021/12/24 03:14:53;;;;;;;2.20;1.70;;;;;;;;;;5034726;28;20431;-61
2021/12/24 03:17:22;;;;;;;5.50;1.87;;;;;;;;;;5032989;28;20411;-61
2021/12/24 03:19:49;;;;;;;3.00;2.00;;;;;;;;;;5034022;28;20407;-60
2021/12/24 03:24:51;;;;;;;2.50;1.80;;;;;;;;;;5034513;28;20418;-61
2021/12/24 03:27:17;;;;;;;2.43;1.57;;;;;;;;;;5034384;28;20504;-62
2021/12/24 03:29:43;;;;;;;3.20;1.30;;;;;;;;;;5034192;28;20409;-61
2021/12/24 03:32:09;;;;;;;2.43;1.70;;;;;;;;;;5034085;28;20907;-60
2021/12/24 03:34:36;;;;;;;2.50;1.80;;;;;;;;;;5033632;28;20446;-61
2021/12/24 03:37:03;;;;;;;10.43;1.80;;;;;;;;;;5033629;28;20402;-60
2021/12/24 03:39:29;;;;;;;2.60;1.80;;;;;;;;;;5033867;28;20419;-61
2021/12/24 03:41:55;;;;;;;3.70;1.67;;;;;;;;;;5033855;28;20425;-60
2021/12/24 03:44:30;;;;;;;2.70;1.70;;;;;;;;;;5033481;28;20449;-61
2021/12/24 03:47:09;;;;;;;3.03;1.53;;;;;;;;;;5033948;28;20876;-61
2021/12/24 03:50:02;;;;;;;2.20;1.33;;;;;;;;;;5034359;28;20386;-60
2021/12/24 03:54:58;;;;;;;2.40;1.80;;;;;;;;;;5033844;28;20422;-61
2021/12/24 03:57:27;;;;;;;3.20;1.80;;;;;;;;;;5033739;28;20733;-61
2021/12/24 03:59:55;;;;;;;2.20;1.40;;;;;;;;;;5033835;28;20754;-61
2021/12/24 04:02:21;;;;;;;3.83;1.70;;;;;;;;;;5033533;28;20497;-61
2021/12/24 04:04:48;;;;;;;3.10;1.43;;;;;;;;;;5033444;28;20426;-60
2021/12/24 04:07:14;;;;;;;3.53;2.07;;;;;;;;;;5033588;28;20446;-61
2021/12/24 04:09:49;;;;;;;2.70;1.80;;;;;;;;;;5033603;28;20490;-60
2021/12/24 04:12:15;;;;;;;2.60;1.60;;;;;;;;;;5033507;28;20470;-59
2021/12/24 04:14:41;;;;;;;2.90;1.70;;;;;;;;;;5033575;28;20421;-61
2021/12/24 04:17:08;;;;;;;3.53;1.57;;;;;;;;;;5033274;28;20410;-59
2021/12/24 04:25:04;;;;;;;2.60;1.80;;;;;;;;;;5036877;28;20456;-61
2021/12/24 04:27:30;;;;;;;3.47;2.17;;;;;;;;;;5046969;28;20476;-61
2021/12/24 04:30:09;;;;;;;3.50;1.60;;;;;;;;;;5037611;28;20403;-60
2021/12/24 04:35:55;;;;;;;2.30;1.63;;;;;;;;;;5037161;28;20942;-60
2021/12/24 04:51:31;;;;;;;3.90;1.57;;;;;;;;;;5038106;28;20390;-60
2021/12/24 05:04:36;;;;;;;2.30;1.53;;;;;;;;;;5036762;28;20437;-60
2021/12/24 05:07:20;;;;;;;3.30;2.07;;;;;;;;;;5037369;28;20831;-59
2021/12/24 05:09:46;;;;;;;1.83;1.43;;;;;;;;;;5037789;28;20380;-59
2021/12/24 05:12:12;;;;;;;5.33;2.10;;;;;;;;;;5036857;28;20421;-60
2021/12/24 05:14:38;;;;;;;1.73;1.50;;;;;;;;;;5036816;28;20998;-60
2021/12/24 05:17:21;;;;;;;2.00;1.20;;;;;;;;;;5037153;28;20425;-59
2021/12/24 05:22:33;;;;;;;2.27;1.60;;;;;;;;;;5057038;28;20386;-60
2021/12/24 05:24:59;;;;;;;3.17;1.50;;;;;;;;;;5057027;28;20560;-61
2021/12/24 05:27:25;;;;;;;2.60;1.20;;;;;;;;;;5056828;28;20481;-61
2021/12/24 05:29:51;;;;;;;1.80;1.10;;;;;;;;;;5056977;28;20460;-60
2021/12/24 05:32:17;;;;;;;3.37;1.60;;;;;;;;;;5056390;28;20448;-59
2021/12/24 05:34:43;;;;;;;2.60;1.60;;;;;;;;;;5056508;28;20425;-60
2021/12/24 05:37:09;;;;;;;2.70;1.17;;;;;;;;;;5055994;28;20606;-59
2021/12/24 05:39:36;;;;;;;3.57;1.73;;;;;;;;;;5056658;28;20433;-61
2021/12/24 05:42:02;;;;;;;2.07;1.40;;;;;;;;;;5056621;28;20417;-60
2021/12/24 05:44:28;;;;;;;1.60;1.10;;;;;;;;;;5056126;28;20422;-57
2021/12/24 05:46:54;;;;;;;2.23;1.23;;;;;;;;;;5056147;28;20813;-60
2021/12/24 05:49:20;;;;;;;2.23;1.30;;;;;;;;;;5056332;28;20398;-59
2021/12/24 05:51:46;;;;;;;2.57;1.53;;;;;;;;;;5056257;28;20429;-58
2021/12/24 05:54:12;;;;;;;2.23;1.30;;;;;;;;;;5056143;28;20422;-59
2021/12/24 05:56:39;;;;;;;2.30;1.53;;;;;;;;;;5056587;28;20401;-58
2021/12/24 05:59:05;;;;;;;3.77;3.00;;;;;;;;;;5056021;28;21048;-60
2021/12/24 06:01:31;;;;;;;1.80;1.10;;;;;;;;;;5059871;28;20397;-60
2021/12/24 06:03:58;;;;;;;3.30;1.40;;;;;;;;;;5061087;28;20441;-60
2021/12/24 06:06:24;;;;;;;3.03;1.57;;;;;;;;;;5061184;28;20441;-61
2021/12/24 06:08:50;;;;;;;2.43;1.20;;;;;;;;;;5061002;28;20446;-60
2021/12/24 06:11:16;;;;;;;2.70;1.17;;;;;;;;;;5060066;28;20425;-58
2021/12/24 06:13:42;;;;;;;2.80;1.80;;;;;;;;;;5058947;28;20424;-60
2021/12/24 06:16:09;;;;;;;2.40;1.20;;;;;;;;;;5059476;28;20406;-60
2021/12/24 06:18:39;;;;;;;2.03;1.33;;;;;;;;;;5059964;28;20401;-57
2021/12/24 06:21:05;;;;;;;3.00;1.30;;;;;;;;;;5059866;28;20473;-59
2021/12/24 06:23:32;;;;;;;3.10;1.53;;;;;;;;;;5059193;28;20909;-60
2021/12/24 06:25:58;;;;;;;2.90;1.50;;;;;;;;;;5059020;28;20409;-60
2021/12/24 06:28:25;;;;;;;2.43;1.20;;;;;;;;;;5059143;28;20800;-60
2021/12/24 06:30:52;;;;;;;1.80;1.30;;;;;;;;;;5058417;28;20898;-60
2021/12/24 06:33:18;;;;;;;2.30;1.40;;;;;;;;;;5058398;28;20452;-59
2021/12/24 06:35:44;;;;;;;3.30;1.63;;;;;;;;;;5057910;28;20417;-59
2021/12/24 06:38:10;;;;;;;2.50;1.90;;;;;;;;;;5057510;28;20898;-57
2021/12/24 06:40:37;;;;;;;3.57;2.30;;;;;;;;;;5058189;28;20417;-60
2021/12/24 06:43:03;;;;;;;4.13;1.63;;;;;;;;;;5057438;28;20402;-59
2021/12/24 06:45:30;;;;;;;3.67;1.87;;;;;;;;;;5056485;28;20759;-58
2021/12/24 06:47:57;;;;;;;2.43;1.50;;;;;;;;;;5059183;28;20572;-59
2021/12/24 06:50:23;;;;;;;2.43;1.70;;;;;;;;;;5061106;28;20405;-59
2021/12/24 06:52:50;;;;;;;2.43;1.50;;;;;;;;;;5059385;28;20492;-60
2021/12/24 06:55:16;;;;;;;2.80;1.60;;;;;;;;;;5059888;28;20451;-60
2021/12/24 06:57:43;;;;;;;3.13;1.80;;;;;;;;;;5059255;28;20414;-60
2021/12/24 07:00:13;;;;;;;2.53;1.80;;;;;;;;;;5059280;28;20488;-59
2021/12/24 07:02:40;;;;;;;5.13;1.30;;;;;;;;;;5058704;28;20401;-60
2021/12/24 07:05:06;;;;;;;3.03;1.63;;;;;;;;;;5058251;28;20431;-60
2021/12/24 07:07:32;;;;;;;2.90;1.93;;;;;;;;;;5057409;28;20471;-60
2021/12/24 07:09:58;;;;;;;2.97;1.50;;;;;;;;;;5056929;28;20424;-61
2021/12/24 07:12:24;;;;;;;3.77;1.90;;;;;;;;;;5058647;28;20970;-60
2021/12/24 07:14:50;;;;;;;2.50;1.73;;;;;;;;;;5059323;28;20436;-61
2021/12/24 07:17:16;;;;;;;2.97;1.20;;;;;;;;;;5059914;28;20398;-61
2021/12/24 07:19:42;;;;;;;2.00;1.50;;;;;;;;;;5059430;28;20409;-60
2021/12/24 07:22:09;;;;;;;2.10;1.50;;;;;;;;;;5058212;28;21032;-60
2021/12/24 07:24:35;;;;;;;5.00;1.87;;;;;;;;;;5057671;28;20426;-60
2021/12/24 07:27:01;;;;;;;2.40;2.00;;;;;;;;;;5057517;28;20840;-60
2021/12/24 07:29:27;;;;;;;2.50;1.70;;;;;;;;;;5056496;28;20406;-60
2021/12/24 07:31:54;;;;;;;2.57;1.80;;;;;;;;;;5054504;28;20767;-60
2021/12/24 07:34:20;;;;;;;2.53;1.70;;;;;;;;;;5054608;28;20449;-61
2021/12/24 07:36:46;;;;;;;3.03;2.17;;;;;;;;;;5059380;28;20463;-61
2021/12/24 07:39:12;;;;;;;3.87;2.30;;;;;;;;;;5059450;28;20489;-61
2021/12/24 07:41:38;;;;;;;2.43;1.60;;;;;;;;;;5058856;28;20497;-61
2021/12/24 07:44:05;;;;;;;2.43;1.80;;;;;;;;;;5059010;28;20429;-60
2021/12/24 07:46:37;;;;;;;2.47;1.40;;;;;;;;;;5058544;28;20536;-60
2021/12/24 07:49:18;;;;;;;2.33;1.80;;;;;;;;;;5058182;28;20382;-62
2021/12/24 07:54:22;;;;;;;3.33;2.03;;;;;;;;;;5059150;28;20421;-60
2021/12/24 07:56:48;;;;;;;2.90;2.13;;;;;;;;;;5058167;28;20405;-60
2021/12/24 07:59:15;;;;;;;6.03;1.80;;;;;;;;;;5059226;28;20401;-60
2021/12/24 08:01:43;;;;;;;2.17;1.53;;;;;;;;;;5062898;28;20477;-60
2021/12/24 08:04:09;;;;;;;2.33;1.70;;;;;;;;;;5060419;28;21152;-61
2021/12/24 08:06:35;;;;;;;3.50;2.00;;;;;;;;;;5062373;28;20520;-61
2021/12/24 08:09:01;;;;;;;5.33;1.73;;;;;;;;;;5061914;28;20406;-60
2021/12/24 08:11:27;;;;;;;3.37;1.97;;;;;;;;;;5058519;28;20409;-60
2021/12/24 08:13:53;;;;;;;4.03;2.13;;;;;;;;;;5057089;28;20437;-60
2021/12/24 08:16:20;;;;;;;3.00;1.90;;;;;;;;;;5056030;28;20646;-59
2021/12/24 08:18:46;;;;;;;2.25;1.30;;;;;;;;;;5058798;28;20439;-62
2021/12/24 08:21:13;;;;;;;2.33;1.60;;;;;;;;;;5061872;28;20175;-61
2021/12/24 08:23:39;;;;;;;4.07;1.90;;;;;;;;;;5061886;28;20890;-62
2021/12/24 08:26:06;;;;;;;2.60;1.90;;;;;;;;;;5058005;28;20828;-62
2021/12/24 08:28:32;;;;;;;3.47;2.20;;;;;;;;;;5059414;28;20488;-64
2021/12/24 08:30:58;;;;;;;1.90;1.57;;;;;;;;;;5058004;28;20421;-64
2021/12/24 08:33:24;;;;;;;1.97;1.57;;;;;;;;;;5059103;28;20967;-64
2021/12/24 08:35:50;;;;;;;2.77;1.80;;;;;;;;;;5056625;28;20448;-64
2021/12/24 08:38:17;;;;;;;3.90;1.87;;;;;;;;;;5059433;28;20418;-64
2021/12/24 08:40:43;;;;;;;2.50;1.60;;;;;;;;;;5057813;28;20421;-64
2021/12/24 08:43:09;;;;;;;2.90;1.73;;;;;;;;;;5056604;28;20421;-64
2021/12/24 08:45:35;;;;;;;3.90;1.63;;;;;;;;;;5058269;28;20475;-62
2021/12/24 08:48:01;;;;;;;5.93;1.60;;;;;;;;;;5057259;28;20467;-63
2021/12/24 08:50:27;;;;;;;2.63;1.60;;;;;;;;;;5056572;28;20800;-63
2021/12/24 08:52:54;;;;;;;1.67;1.17;;;;;;;;;;5057503;28;20413;-62
2021/12/24 08:55:20;;;;;;;3.13;1.67;;;;;;;;;;5060740;28;20417;-64
2021/12/24 08:57:46;;;;;;;3.23;1.73;;;;;;;;;;5061384;28;20426;-63
2021/12/24 09:00:13;;;;;;;4.10;1.50;;;;;;;;;;5059789;28;20425;-63
2021/12/24 09:02:39;;;;;;;4.43;1.77;;;;;;;;;;5060132;28;20417;-63
2021/12/24 09:05:06;;;;;;;1.70;1.43;;;;;;;;;;5060340;28;20417;-63
2021/12/24 09:07:32;;;;;;;2.40;1.63;;;;;;;;;;5060502;28;20930;-63
2021/12/24 09:09:58;;;;;;;3.63;1.87;;;;;;;;;;5059449;28;20413;-63
2021/12/24 09:12:24;;;;;;;2.57;2.00;;;;;;;;;;5058693;28;20408;-63
2021/12/24 09:14:51;;;;;;;2.50;1.50;;;;;;;;;;5060499;28;21017;-64
2021/12/24 09:17:17;;;;;;;2.90;1.90;;;;;;;;;;5057888;28;20417;-64
2021/12/24 09:19:48;;;;;;;2.70;2.00;;;;;;;;;;5059719;28;20982;-65
2021/12/24 09:22:17;;;;;;;2.37;1.60;;;;;;;;;;5057801;28;20409;-63
2021/12/24 09:24:44;;;;;;;2.13;1.40;;;;;;;;;;5057148;28;20434;-63
2021/12/24 09:27:10;;;;;;;5.43;1.70;;;;;;;;;;5055790;28;20449;-60
2021/12/24 09:29:36;;;;;;;4.73;1.80;;;;;;;;;;5058206;28;20779;-60
2021/12/24 09:32:02;;;;;;;2.80;2.10;;;;;;;;;;5058611;28;20449;-63
2021/12/24 09:34:28;;;;;;;1.90;1.70;;;;;;;;;;5071125;22;21055;-68
2021/12/24 09:36:54;;;;;;;5.90;1.77;;;;;;;;;;5048791;28;20446;-69
2021/12/24 09:39:21;;;;;;;3.90;1.60;;;;;;;;;;5054147;28;20418;-67
2021/12/24 09:41:47;;;;;;;6.43;1.70;;;;;;;;;;5055616;28;20718;-67
2021/12/24 09:44:13;;;;;;;3.50;2.10;;;;;;;;;;5055065;28;20402;-68
2021/12/24 09:46:42;;;;;;;2.30;1.73;;;;;;;;;;5055213;28;20455;-67
2021/12/24 09:49:09;;;;;;;2.57;2.00;;;;;;;;;;5055229;28;20408;-67
2021/12/24 09:51:37;;;;;;;2.50;1.27;;;;;;;;;;5055223;28;20956;-68
2021/12/24 09:54:08;;;;;;;3.37;1.67;;;;;;;;;;5053824;28;20410;-68
2021/12/24 09:56:34;;;;;;;7.57;4.03;;;;;;;;;;5055379;28;20427;-67
2021/12/24 09:59:00;;;;;;;5.70;2.30;;;;;;;;;;5055058;28;20416;-68
2021/12/24 10:01:34;;;;;;;4.67;2.40;;;;;;;;;;5055008;28;20457;-68
2021/12/24 10:04:02;;;;;;;3.10;2.07;;;;;;;;;;5054896;28;20444;-67
2021/12/24 10:06:28;;;;;;;2.43;1.77;;;;;;;;;;5054652;28;20555;-67
2021/12/24 10:09:00;;;;;;;2.37;1.90;;;;;;;;;;5054819;28;20402;-68
2021/12/24 10:11:29;;;;;;;3.00;1.73;;;;;;;;;;5054737;28;20438;-67
2021/12/24 10:14:03;;;;;;;3.47;1.87;;;;;;;;;;5054716;28;20776;-68
2021/12/24 10:16:29;;;;;;;3.10;1.93;;;;;;;;;;5054556;28;20785;-68
2021/12/24 10:18:56;;;;;;;2.50;1.70;;;;;;;;;;5054490;28;20928;-68
2021/12/24 10:21:24;;;;;;;2.40;1.97;;;;;;;;;;5054575;28;20534;-68
2021/12/24 10:23:54;;;;;;;5.33;1.77;;;;;;;;;;5053460;28;20406;-67
2021/12/24 10:26:23;;;;;;;2.90;1.93;;;;;;;;;;5054247;28;20457;-67
2021/12/24 10:28:55;;;;;;;2.20;1.63;;;;;;;;;;5054352;28;20541;-68
2021/12/24 10:31:26;;;;;;;2.20;1.70;;;;;;;;;;5054353;28;20397;-67
2021/12/24 10:34:11;;;;;;;2.27;1.70;;;;;;;;;;5054300;28;20393;-68
2021/12/24 10:36:57;;;;;;;3.10;2.40;;;;;;;;;;5054079;28;20438;-68
2021/12/24 10:39:25;;;;;;;4.37;1.77;;;;;;;;;;5054380;28;20803;-68
2021/12/24 10:41:52;;;;;;;4.10;2.20;;;;;;;;;;5054166;28;20413;-67
2021/12/24 10:44:22;;;;;;;5.63;2.00;;;;;;;;;;5054419;28;20769;-67
2021/12/24 10:47:04;;;;;;;3.90;2.77;;;;;;;;;;5054030;28;20495;-69
2021/12/24 10:55:08;;;;;;;2.83;1.80;;;;;;;;;;4999746;28;20428;-68
2021/12/24 10:57:38;;;;;;;4.03;2.60;;;;;;;;;;5053981;28;20443;-67
2021/12/24 11:00:07;;;;;;;2.70;2.00;;;;;;;;;;5053973;28;20455;-67
2021/12/24 11:02:34;;;;;;;4.40;1.93;;;;;;;;;;5053977;28;20398;-67
2021/12/24 11:05:00;;;;;;;3.97;2.07;;;;;;;;;;5053727;28;20427;-67
2021/12/24 11:07:40;;;;;;;3.80;2.07;;;;;;;;;;5053551;28;20445;-67
2021/12/24 11:10:09;;;;;;;1.87;1.57;;;;;;;;;;5052482;28;20413;-67
2021/12/24 11:12:43;;;;;;;2.73;2.00;;;;;;;;;;5053740;28;20420;-67
2021/12/24 11:15:30;;;;;;;3.80;2.17;;;;;;;;;;5053740;28;20433;-67
2021/12/24 11:17:57;;;;;;;2.90;2.10;;;;;;;;;;5053476;28;20465;-67
2021/12/24 11:20:24;;;;;;;3.50;2.20;;;;;;;;;;5053319;28;20475;-66
2021/12/24 11:23:01;;;;;;;3.20;2.10;;;;;;;;;;5053359;28;20402;-67
2021/12/24 11:25:29;;;;;;;3.47;2.23;;;;;;;;;;5053473;28;20424;-66
2021/12/24 11:27:55;;;;;;;2.57;1.87;;;;;;;;;;5053289;28;20452;-67
2021/12/24 11:30:22;;;;;;;3.20;1.87;;;;;;;;;;5053633;28;20413;-66
2021/12/24 11:32:48;;;;;;;5.30;2.00;;;;;;;;;;5053307;28;20401;-67
2021/12/24 11:35:15;;;;;;;3.20;2.13;;;;;;;;;;5051506;28;20483;-66
2021/12/24 11:37:45;;;;;;;2.63;2.10;;;;;;;;;;5053225;28;20897;-66
2021/12/24 11:40:15;;;;;;;3.87;2.40;;;;;;;;;;5051976;28;20830;-67
2021/12/24 11:42:43;;;;;;;3.03;2.03;;;;;;;;;;5053471;28;20401;-67
2021/12/24 11:45:09;;;;;;;3.30;2.23;;;;;;;;;;5052962;28;20435;-68
2021/12/24 11:47:35;;;;;;;2.90;2.10;;;;;;;;;;5052878;28;20971;-67
2021/12/24 11:50:02;;;;;;;3.70;1.87;;;;;;;;;;5053095;28;20493;-67
2021/12/24 11:52:28;;;;;;;2.37;1.73;;;;;;;;;;5053239;28;20890;-66
2021/12/24 11:54:55;;;;;;;2.93;1.83;;;;;;;;;;5051757;28;20522;-66
2021/12/24 11:57:24;;;;;;;5.93;2.83;;;;;;;;;;5053345;28;20462;-67
2021/12/24 11:59:51;;;;;;;3.07;1.83;;;;;;;;;;5053170;28;20508;-67
2021/12/24 12:02:37;;;;;;;2.70;2.10;;;;;;;;;;5053428;28;20406;-68
2021/12/24 12:05:17;;;;;;;3.43;2.00;;;;;;;;;;5052999;28;20839;-68
2021/12/24 12:07:43;;;;;;;2.70;1.97;;;;;;;;;;5051574;28;20475;-68
2021/12/24 12:10:09;;;;;;;8.33;2.57;;;;;;;;;;5052984;28;20490;-68
2021/12/24 12:12:36;;;;;;;2.60;1.87;;;;;;;;;;5052887;28;20398;-68
2021/12/24 12:15:21;;;;;;;2.87;2.03;;;;;;;;;;5052857;28;20422;-68
2021/12/24 12:17:54;;;;;;;6.53;2.20;;;;;;;;;;5052890;28;20401;-68
2021/12/24 12:20:56;;;;;;;2.70;1.90;;;;;;;;;;5053178;28;20405;-68
2021/12/24 12:24:56;;;;;;;3.00;1.70;;;;;;;;;;5052890;28;20412;-68
2021/12/24 12:26:36;;;;;;;4.70;1.50;;;;;;;;;;5052371;28;20499;-69
2021/12/24 12:29:20;;;;;;;4.40;1.83;;;;;;;;;;5052968;28;20822;-69
2021/12/24 12:31:47;;;;;;;3.10;2.23;;;;;;;;;;5052719;28;20893;-69
2021/12/24 12:34:32;;;;;;;1.97;1.33;;;;;;;;;;5052629;28;20416;-69
2021/12/24 12:37:17;;;;;;;3.30;2.03;;;;;;;;;;5051263;28;20413;-69
2021/12/24 12:39:44;;;;;;;3.07;1.70;;;;;;;;;;5051435;28;20459;-69
2021/12/24 12:42:13;;;;;;;5.60;2.03;;;;;;;;;;5053023;28;20882;-68
2021/12/24 12:44:42;;;;;;;2.07;1.60;;;;;;;;;;5053048;28;20421;-68
2021/12/24 12:47:27;;;;;;;2.40;1.90;;;;;;;;;;5038017;28;20449;-68
2021/12/24 12:50:13;;;;;;;2.27;1.60;;;;;;;;;;5056878;28;20798;-68
2021/12/24 12:52:41;;;;;;;3.47;2.20;;;;;;;;;;5056910;28;20397;-68
2021/12/24 12:55:26;;;;;;;2.30;1.60;;;;;;;;;;5056619;28;20965;-69
2021/12/24 12:57:52;;;;;;;2.07;1.47;;;;;;;;;;5056672;28;20802;-69
2021/12/24 13:00:24;;;;;;;2.77;1.80;;;;;;;;;;5056732;28;20799;-68
2021/12/24 13:05:32;;;;;;;1.90;1.53;;;;;;;;;;5056897;28;20425;-68
2021/12/24 13:08:09;;;;;;;4.20;1.83;;;;;;;;;;5056441;28;20483;-67
2021/12/24 13:10:35;;;;;;;2.57;2.00;;;;;;;;;;5056358;28;20392;-67
2021/12/24 13:13:02;;;;;;;3.03;1.63;;;;;;;;;;5056194;28;20394;-67
2021/12/24 13:15:29;;;;;;;3.73;2.00;;;;;;;;;;5055798;28;20432;-68
2021/12/24 13:17:59;;;;;;;3.47;2.07;;;;;;;;;;5055999;28;20484;-67
2021/12/24 13:22:26;;;;;;;2.10;1.73;;;;;;;;;;5055991;28;20397;-67
2021/12/24 13:23:23;;;;;;;2.63;1.80;;;;;;;;;;5055668;28;20417;-67
2021/12/24 13:25:49;;;;;;;2.57;1.67;;;;;;;;;;5055635;28;20424;-67
2021/12/24 13:28:15;;;;;;;2.73;1.67;;;;;;;;;;5051748;28;20492;-68
2021/12/24 13:30:42;;;;;;;2.07;1.50;;;;;;;;;;5048631;28;20414;-68
2021/12/24 13:33:08;;;;;;;2.93;2.00;;;;;;;;;;5035997;28;20398;-69
2021/12/24 13:35:41;;;;;;;2.30;1.43;;;;;;;;;;5035415;28;20449;-69
2021/12/24 13:38:17;;;;;;;2.07;1.47;;;;;;;;;;5035453;28;20762;-68
2021/12/24 13:40:43;;;;;;;2.20;1.60;;;;;;;;;;5035557;28;20395;-68
2021/12/24 13:43:12;;;;;;;2.40;1.80;;;;;;;;;;5050900;28;20449;-68
2021/12/24 13:45:39;;;;;;;2.13;1.77;;;;;;;;;;5035897;28;20430;-69
2021/12/24 13:48:21;;;;;;;2.43;1.93;;;;;;;;;;5035779;28;20473;-69
2021/12/24 13:56:01;;;;;;;2.00;1.67;;;;;;;;;;5035865;28;20488;-68
2021/12/24 13:58:27;;;;;;;2.53;1.93;;;;;;;;;;5036000;28;20760;-68
2021/12/24 14:00:55;;;;;;;2.60;1.90;;;;;;;;;;5035730;28;20454;-68
2021/12/24 14:03:31;;;;;;;2.90;1.93;;;;;;;;;;5035111;28;20394;-67
2021/12/24 14:06:00;;;;;;;2.47;1.87;;;;;;;;;;5034980;28;20418;-68
2021/12/24 14:08:27;;;;;;;3.00;1.90;;;;;;;;;;5035045;28;20399;-69
2021/12/24 14:11:07;;;;;;;2.60;1.73;;;;;;;;;;5050481;28;20452;-68
2021/12/24 14:13:38;;;;;;;2.53;1.60;;;;;;;;;;5035277;28;20963;-69
2021/12/24 14:19:08;;;;;;;2.27;1.53;;;;;;;;;;5019187;28;20402;-69
2021/12/24 14:21:47;;;;;;;2.50;1.47;;;;;;;;;;5035360;28;20406;-69
2021/12/24 14:24:16;;;;;;;2.70;1.80;;;;;;;;;;5035142;28;20424;-69
2021/12/24 14:26:42;;;;;;;2.97;1.73;;;;;;;;;;5050044;28;20457;-69
2021/12/24 14:29:08;;;;;;;2.47;1.53;;;;;;;;;;5034772;28;20480;-69
2021/12/24 14:31:47;;;;;;;2.73;1.30;;;;;;;;;;5034663;28;20390;-68
2021/12/24 14:34:27;;;;;;;2.20;1.80;;;;;;;;;;5034609;28;20452;-68
2021/12/24 14:37:00;;;;;;;2.40;1.63;;;;;;;;;;5034743;28;20395;-69
2021/12/24 14:39:33;;;;;;;2.60;1.80;;;;;;;;;;5034545;28;20910;-68
2021/12/24 14:42:09;;;;;;;2.03;1.50;;;;;;;;;;5034479;28;20398;-69
2021/12/24 14:44:35;;;;;;;2.70;1.60;;;;;;;;;;5034470;28;20742;-69
2021/12/24 14:47:01;;;;;;;2.17;1.70;;;;;;;;;;5034338;28;20534;-69
2021/12/24 14:49:33;;;;;;;2.27;1.60;;;;;;;;;;5034380;28;20564;-69
2021/12/24 14:52:17;;;;;;;2.90;1.53;;;;;;;;;;5034268;28;20423;-68
2021/12/24 14:55:02;;;;;;;3.87;1.73;;;;;;;;;;5034421;28;20422;-69
2021/12/24 14:57:28;;;;;;;1.87;1.60;;;;;;;;;;5034249;28;20393;-69
2021/12/24 14:59:54;;;;;;;1.83;1.30;;;;;;;;;;5034168;28;20394;-68
2021/12/24 15:02:20;;;;;;;1.73;1.50;;;;;;;;;;5034296;28;20455;-69
2021/12/24 15:04:55;;;;;;;6.00;1.80;;;;;;;;;;5033979;28;20410;-69
2021/12/24 15:07:29;;;;;;;2.23;1.50;;;;;;;;;;5034126;28;20437;-69
2021/12/24 15:10:17;;;;;;;4.33;1.63;;;;;;;;;;5033715;28;20501;-69
2021/12/24 15:12:50;;;;;;;3.00;1.90;;;;;;;;;;5034333;28;20405;-69
2021/12/24 15:15:17;;;;;;;2.37;1.73;;;;;;;;;;5033916;28;20530;-68
2021/12/24 15:17:46;;;;;;;4.10;1.87;;;;;;;;;;5034031;28;20422;-68
2021/12/24 15:20:13;;;;;;;2.90;1.60;;;;;;;;;;5033955;28;20399;-69
2021/12/24 15:22:39;;;;;;;1.93;1.40;;;;;;;;;;5034124;28;20774;-68
2021/12/24 15:25:09;;;;;;;5.20;1.50;;;;;;;;;;5033641;28;20426;-68
2021/12/24 15:27:36;;;;;;;3.27;2.00;;;;;;;;;;5048822;28;20493;-69
2021/12/24 15:30:11;;;;;;;1.90;1.50;;;;;;;;;;5033816;28;20398;-68
2021/12/24 15:32:37;;;;;;;2.27;1.80;;;;;;;;;;5033844;28;20374;-69
2021/12/24 15:35:07;;;;;;;3.43;1.63;;;;;;;;;;5045515;23;20634;-85
2021/12/24 15:37:33;;;;;;;5.70;1.73;;;;;;;;;;5066410;28;20823;-86
2021/12/24 15:40:00;;;;;;;2.00;1.40;;;;;;;;;;5065681;28;20413;-86
2021/12/24 15:42:28;;;;;;;4.30;1.87;;;;;;;;;;5064943;28;20406;-86
2021/12/24 15:44:54;;;;;;;2.40;1.53;;;;;;;;;;5065643;28;20412;-86
2021/12/24 15:47:24;;;;;;;3.40;1.67;;;;;;;;;;5061103;28;20856;-86
2021/12/24 15:49:50;;;;;;;3.30;2.27;;;;;;;;;;5061624;28;20822;-86
2021/12/24 15:52:16;;;;;;;2.80;1.87;;;;;;;;;;5059338;28;20426;-86
2021/12/24 15:54:43;;;;;;;2.53;1.60;;;;;;;;;;5061462;28;20414;-87
2021/12/24 15:57:09;;;;;;;4.07;2.10;;;;;;;;;;5060966;28;20438;-86
2021/12/24 15:59:36;;;;;;;2.77;1.73;;;;;;;;;;5060939;28;20418;-86
2021/12/24 16:02:03;;;;;;;2.60;1.77;;;;;;;;;;5059342;28;20437;-84
2021/12/24 16:04:29;;;;;;;2.10;1.47;;;;;;;;;;5061496;28;20426;-87
2021/12/24 16:06:55;;;;;;;2.43;1.70;;;;;;;;;;5060494;28;20869;-86
2021/12/24 16:09:23;;;;;;;2.70;1.77;;;;;;;;;;5061358;28;20418;-87
2021/12/24 16:11:49;;;;;;;2.50;1.80;;;;;;;;;;5059754;28;20410;-86
2021/12/24 16:14:16;;;;;;;3.00;2.00;;;;;;;;;;5058658;28;20413;-85
2021/12/24 16:16:44;;;;;;;3.60;2.33;;;;;;;;;;5058975;28;20441;-85
2021/12/24 16:19:14;;;;;;;4.50;2.60;;;;;;;;;;5060738;28;20430;-85
2021/12/24 16:21:41;;;;;;;3.00;1.93;;;;;;;;;;5060513;28;20409;-86
2021/12/24 16:24:07;;;;;;;2.13;1.80;;;;;;;;;;5062868;28;20410;-85
2021/12/24 16:26:34;;;;;;;4.60;2.20;;;;;;;;;;5063603;28;20991;-85
2021/12/24 16:29:00;;;;;;;4.00;2.33;;;;;;;;;;5065367;28;20436;-86
2021/12/24 16:31:26;;;;;;;3.93;2.53;;;;;;;;;;5064653;28;20409;-86
2021/12/24 16:33:53;;;;;;;4.50;2.50;;;;;;;;;;5066623;28;20470;-86
2021/12/24 16:36:19;;;;;;;4.10;3.17;;;;;;;;;;5065450;28;20421;-86
2021/12/24 16:38:45;;;;;;;2.90;2.23;;;;;;;;;;5065548;28;20420;-86
2021/12/24 16:41:11;;;;;;;2.73;2.03;;;;;;;;;;5063442;28;20397;-86
2021/12/24 16:43:37;;;;;;;3.73;1.90;;;;;;;;;;5065143;28;20410;-86
2021/12/24 16:46:04;;;;;;;4.23;2.67;;;;;;;;;;5067666;28;20781;-86
2021/12/24 16:48:30;;;;;;;3.70;2.10;;;;;;;;;;5064734;28;20860;-85
2021/12/24 16:50:56;;;;;;;3.50;2.00;;;;;;;;;;5061081;28;20508;-86
2021/12/24 16:53:22;;;;;;;3.00;2.07;;;;;;;;;;5061246;28;20778;-86